Portada
METAR-TAF:

METAR-TAF

Aeropuertos :

Gwadar, Pakistán

latitud: 25-13-59N, longitud: 062-19-46E, altitud: 29 m

METAR: falta

Hora: 05:44 (00:44 UTC)

Pronóstico

El informe se hizo hace 3 horas y 14 minutos, a las 21:30 UTC
Pronóstico válido del 28 a las 00 UTC al 28 a las 24 UTC
Viento 15 kt del suroeste con ráfagas de 25 kt
Visibilidad: 3000 m
Ventisca alta de polvo
Temporalmente
del 28 a las 00 UTC al 28 a las 04 UTC
Viento 8 kt del oeste
Visibilidad: 2000 m
neblina
Evolucionando progresivamente
del 28 a las 18 UTC al 28 a las 20 UTC
Viento 10 kt del suroeste con ráfagas de 20 kt
Visibilidad: 3000 m
calima

TAF: OPGD 272130Z 2800/2824 23015G25KT 3000 BLDU NSC TEMPO 2800/2804 27008KT 2000 BR NSC BECMG 2818/2820 23010G20KT 3000 HZ NSC

Observaciones y pronósticos meteorológicos de más de 4000 aeropuertos (mensajes METAR y TAF).

Los puntos amarillos y rojos representan las estaciones disponibles.

Ponga el ratón en el punto deseado para ver el nombre de la estación.

Haga clic para ver las observaciones y los pronósticos meteorológicos.

Para cambiar el mapa : haga clic en los botones verdes con una cruz de color negro para hacer un zoom, en el botón verde con un guión para alejar o en las flechas verdes para mapas adyacentes.


METAR-TAF: